Time;durP1;ratioP1;P1;durP2;ratioP2;P2;SDS_P1;SDS_P2;PMS_P1;PMS_P2;Temp;Humidity;BMP_temperature;BMP_pressure;BME280_temperature;BME280_humidity;BME280_pressure;Samples;Min_cycle;Max_cycle;Signal;HPM_P1;HPM_P2
2023/11/12 00:01:46;;;;;;;0.00;0.00;;;;;;;7.61;88.75;98914.13;4982166;28;20688;-77
2023/11/12 00:04:12;;;;;;;0.00;0.00;;;;;;;7.66;89.03;98919.50;4938597;28;20097;-78
2023/11/12 00:06:40;;;;;;;0.00;0.00;;;;;;;7.62;89.31;98909.47;4951048;28;20030;-77
2023/11/12 00:09:06;;;;;;;0.00;0.00;;;;;;;7.56;89.14;98899.75;4972371;28;20021;-77
2023/11/12 00:11:35;;;;;;;0.00;0.00;;;;;;;7.57;89.55;98914.97;4963128;28;20018;-77
2023/11/12 00:14:02;;;;;;;0.00;0.00;;;;;;;7.60;89.48;98931.53;4963352;28;20034;-79
2023/11/12 00:16:27;;;;;;;0.00;0.00;;;;;;;7.49;89.14;98911.75;4967201;28;20104;-78
2023/11/12 00:18:54;;;;;;;0.00;0.00;;;;;;;7.56;89.38;98921.50;4972195;28;20056;-78
2023/11/12 00:21:20;;;;;;;0.00;0.00;;;;;;;7.60;89.38;98922.56;4961575;28;20030;-77
2023/11/12 00:23:49;;;;;;;0.00;0.00;;;;;;;7.59;89.33;98923.66;4977364;28;20037;-79
2023/11/12 00:26:16;;;;;;;0.00;0.00;;;;;;;7.46;89.37;98904.16;4964759;28;20033;-78
2023/11/12 00:28:41;;;;;;;0.00;0.00;;;;;;;7.44;89.78;98903.63;4976239;28;20019;-78
2023/11/12 00:31:09;;;;;;;0.00;0.00;;;;;;;7.47;89.62;98908.50;4934059;28;20027;-80
2023/11/12 00:33:35;;;;;;;0.00;0.00;;;;;;;7.25;89.83;98879.00;4965787;28;20093;-78
2023/11/12 00:36:00;;;;;;;0.00;0.00;;;;;;;7.44;89.75;98910.97;4950742;28;20030;-78
2023/11/12 00:38:26;;;;;;;0.00;0.00;;;;;;;7.47;90.10;98924.81;4934140;28;20047;-77
2023/11/12 00:40:54;;;;;;;0.00;0.00;;;;;;;7.51;89.86;98930.50;4950426;28;20041;-78
2023/11/12 00:43:26;;;;;;;0.00;0.00;;;;;;;7.54;89.49;98934.59;4979766;28;20089;-78
2023/11/12 00:45:59;;;;;;;0.00;0.00;;;;;;;7.58;89.60;98935.63;4971665;28;20802;-78
2023/11/12 00:48:25;;;;;;;0.03;0.03;;;;;;;7.51;90.20;98925.88;4950879;28;20050;-77
2023/11/12 00:50:51;;;;;;;0.00;0.00;;;;;;;7.57;90.49;98928.56;4969054;28;20070;-77
2023/11/12 00:53:16;;;;;;;0.00;0.00;;;;;;;7.58;90.21;98924.75;4953379;28;20045;-76
2023/11/12 00:55:42;;;;;;;0.00;0.00;;;;;;;7.50;90.63;98910.66;4982857;28;20033;-78
2023/11/12 00:58:07;;;;;;;0.00;0.00;;;;;;;7.31;91.45;98887.94;4977312;28;20524;-77
2023/11/12 01:00:33;;;;;;;0.00;0.00;;;;;;;7.40;90.80;98902.56;4965175;28;20077;-77
2023/11/12 01:02:58;;;;;;;0.00;0.00;;;;;;;7.42;91.15;98905.03;4956280;28;20021;-78
2023/11/12 01:05:24;;;;;;;0.00;0.00;;;;;;;7.37;91.42;98907.75;4955216;28;20034;-78
2023/11/12 01:07:52;;;;;;;0.00;0.00;;;;;;;7.16;91.80;98878.78;4939097;28;20027;-77
2023/11/12 01:10:17;;;;;;;0.00;0.00;;;;;;;7.05;92.42;98876.41;4945400;28;20031;-78
2023/11/12 01:12:42;;;;;;;0.00;0.00;;;;;;;7.23;92.25;98908.38;4960943;28;20026;-78
2023/11/12 01:15:08;;;;;;;0.00;0.00;;;;;;;7.21;91.67;98899.69;4974682;28;20038;-77
2023/11/12 01:17:34;;;;;;;0.00;0.00;;;;;;;7.13;91.60;98900.28;4948445;28;20073;-77
2023/11/12 01:20:03;;;;;;;0.00;0.00;;;;;;;7.08;92.25;98894.88;4948919;28;20054;-79
2023/11/12 01:22:28;;;;;;;0.00;0.00;;;;;;;7.13;92.11;98903.00;4952879;28;20042;-77
2023/11/12 01:24:54;;;;;;;0.00;0.00;;;;;;;7.15;92.57;98896.22;4970122;28;20462;-79
2023/11/12 01:27:19;;;;;;;0.00;0.00;;;;;;;7.18;92.49;98902.16;4975871;28;20118;-78
2023/11/12 01:29:44;;;;;;;0.00;0.00;;;;;;;7.02;91.78;98880.50;4972070;28;20054;-77
2023/11/12 01:32:10;;;;;;;0.00;0.00;;;;;;;7.09;92.37;98896.50;4974012;28;20045;-76
2023/11/12 01:34:35;;;;;;;0.00;0.00;;;;;;;7.14;91.88;98904.63;4957444;28;20572;-77
2023/11/12 01:37:01;;;;;;;0.00;0.00;;;;;;;7.07;92.19;98894.06;4971903;28;20022;-78
2023/11/12 01:39:29;;;;;;;0.00;0.00;;;;;;;7.18;92.13;98899.44;4957702;28;20054;-77
2023/11/12 01:41:54;;;;;;;0.00;0.00;;;;;;;7.14;92.50;98904.63;4959721;28;20023;-77
2023/11/12 01:44:20;;;;;;;0.00;0.00;;;;;;;7.16;92.09;98900.53;4954993;28;20041;-77
2023/11/12 01:46:45;;;;;;;0.00;0.00;;;;;;;7.10;92.19;98888.06;4946837;28;20129;-77
2023/11/12 01:49:11;;;;;;;0.00;0.00;;;;;;;7.14;92.28;98893.75;4938869;28;20026;-78
2023/11/12 01:51:37;;;;;;;0.00;0.00;;;;;;;7.07;92.32;98883.19;4939340;28;20662;-77
2023/11/12 01:54:03;;;;;;;0.00;0.00;;;;;;;7.18;91.89;98902.16;4962442;28;20031;-76
2023/11/12 01:56:29;;;;;;;0.00;0.00;;;;;;;7.16;91.95;98903.25;4981426;28;20026;-77
2023/11/12 01:58:57;;;;;;;0.00;0.00;;;;;;;7.02;92.02;98877.78;4964094;28;20080;-77
2023/11/12 02:01:23;;;;;;;0.00;0.00;;;;;;;7.03;92.34;98873.97;4985105;28;20500;-77
2023/11/12 02:03:51;;;;;;;0.00;0.00;;;;;;;6.98;92.35;98879.44;4931610;28;20065;-76
2023/11/12 02:06:17;;;;;;;0.00;0.00;;;;;;;7.13;92.40;98897.56;4984587;28;20035;-78
2023/11/12 02:08:42;;;;;;;0.00;0.00;;;;;;;7.09;92.81;98891.88;4972520;28;20027;-77
2023/11/12 02:11:09;;;;;;;0.00;0.00;;;;;;;7.11;92.73;98888.88;4955442;28;20149;-77
2023/11/12 02:13:44;;;;;;;0.00;0.00;;;;;;;7.11;92.73;98894.31;4954924;28;20050;-77
2023/11/12 02:16:10;;;;;;;0.00;0.00;;;;;;;7.14;92.51;98900.00;4961775;28;20029;-76
2023/11/12 02:18:35;;;;;;;0.00;0.00;;;;;;;7.21;92.75;98904.31;4943337;28;20019;-76
2023/11/12 02:21:03;;;;;;;0.00;0.00;;;;;;;7.22;92.98;98906.75;4954422;28;20082;-78
2023/11/12 02:23:29;;;;;;;0.00;0.00;;;;;;;7.19;92.95;98907.31;4970856;28;20025;-77
2023/11/12 02:25:57;;;;;;;0.00;0.00;;;;;;;7.24;92.44;98903.75;4967925;28;20026;-79
2023/11/12 02:28:23;;;;;;;0.00;0.00;;;;;;;7.24;92.71;98898.31;4977572;28;20022;-77
2023/11/12 02:30:53;;;;;;;0.00;0.00;;;;;;;7.22;92.71;98886.91;4967949;28;20395;-78
2023/11/12 02:33:18;;;;;;;0.00;0.00;;;;;;;7.24;93.22;98891.00;4949352;28;20034;-78
2023/11/12 02:35:45;;;;;;;0.00;0.00;;;;;;;7.33;92.40;98899.38;4958373;28;20477;-77
2023/11/12 02:38:11;;;;;;;0.00;0.00;;;;;;;7.35;93.30;98899.88;4966826;28;20056;-77
2023/11/12 02:40:37;;;;;;;0.00;0.00;;;;;;;7.34;93.18;98892.81;4931190;28;20030;-79
2023/11/12 02:43:03;;;;;;;0.00;0.00;;;;;;;7.38;93.18;98891.16;4968116;28;20030;-78
2023/11/12 02:45:29;;;;;;;0.00;0.00;;;;;;;7.35;92.80;98889.00;4970339;28;20548;-79
2023/11/12 02:47:55;;;;;;;0.00;0.00;;;;;;;7.34;92.99;98884.66;4939528;28;20027;-76
2023/11/12 02:50:25;;;;;;;0.00;0.00;;;;;;;7.37;92.94;98894.16;4953937;28;20110;-77
2023/11/12 02:52:51;;;;;;;0.00;0.00;;;;;;;7.31;93.52;98887.94;4972365;28;20029;-77
2023/11/12 02:55:16;;;;;;;0.00;0.00;;;;;;;7.31;93.56;98885.22;4984519;28;20396;-77
2023/11/12 02:57:44;;;;;;;0.00;0.00;;;;;;;7.31;93.15;98888.75;4938102;28;20030;-77
2023/11/12 03:00:10;;;;;;;0.00;0.00;;;;;;;7.31;93.60;98882.50;4952440;28;20038;-77
2023/11/12 03:02:36;;;;;;;0.00;0.00;;;;;;;7.31;93.97;98882.50;4931265;28;20030;-77
2023/11/12 03:05:01;;;;;;;0.00;0.00;;;;;;;7.36;94.23;98885.19;4931586;28;20058;-78
2023/11/12 03:07:26;;;;;;;0.00;0.00;;;;;;;7.33;94.04;98883.03;4951650;28;20030;-78
2023/11/12 03:09:52;;;;;;;0.00;0.00;;;;;;;7.29;93.87;98873.81;4937289;28;20045;-78
2023/11/12 03:12:18;;;;;;;0.00;0.00;;;;;;;7.41;93.21;98898.75;4943270;28;20108;-76
2023/11/12 03:14:43;;;;;;;0.00;0.00;;;;;;;7.43;93.76;98895.75;4957237;28;20026;-77
2023/11/12 03:17:09;;;;;;;0.00;0.00;;;;;;;7.46;93.84;98896.00;4987603;28;20031;-78
2023/11/12 03:19:34;;;;;;;0.00;0.00;;;;;;;7.39;93.19;98879.19;4948175;28;20057;-78
2023/11/12 03:22:00;;;;;;;0.00;0.00;;;;;;;7.49;93.73;98892.72;4988600;28;20022;-79
2023/11/12 03:24:26;;;;;;;0.00;0.00;;;;;;;7.35;93.31;98864.53;4949194;28;20045;-77
2023/11/12 03:26:52;;;;;;;0.00;0.00;;;;;;;7.51;92.98;98887.78;4943140;28;20039;-76
2023/11/12 03:29:18;;;;;;;0.00;0.00;;;;;;;7.51;93.54;98893.25;4952980;28;20322;-77
2023/11/12 03:31:48;;;;;;;0.00;0.00;;;;;;;7.56;93.41;98894.31;4974737;28;20376;-78
2023/11/12 03:34:14;;;;;;;0.00;0.00;;;;;;;7.46;93.22;98885.13;4994251;28;20031;-77
2023/11/12 03:36:39;;;;;;;0.00;0.00;;;;;;;7.26;93.14;98858.88;4962323;28;20025;-79
2023/11/12 03:39:08;;;;;;;0.00;0.00;;;;;;;7.48;93.37;98893.00;4973765;28;20123;-78
2023/11/12 03:41:34;;;;;;;0.00;0.00;;;;;;;7.38;93.91;98877.56;4948196;28;20034;-78
2023/11/12 03:43:59;;;;;;;0.00;0.00;;;;;;;7.31;93.81;98871.63;4956798;28;20022;-78
2023/11/12 03:46:25;;;;;;;0.00;0.00;;;;;;;7.31;94.12;98866.19;4927560;28;20128;-76
2023/11/12 03:48:50;;;;;;;0.00;0.00;;;;;;;7.40;94.01;98880.78;4960449;28;20105;-77
2023/11/12 03:51:15;;;;;;;0.00;0.00;;;;;;;7.47;94.53;98892.16;4952448;28;20121;-77
2023/11/12 03:53:41;;;;;;;0.00;0.00;;;;;;;7.47;94.50;98886.72;4960072;28;20384;-77
2023/11/12 03:56:06;;;;;;;0.08;0.08;;;;;;;7.40;93.85;98875.34;4976443;28;20480;-76
2023/11/12 03:58:33;;;;;;;0.00;0.00;;;;;;;7.37;94.29;98872.41;4945315;28;20196;-77
2023/11/12 04:01:00;;;;;;;0.00;0.00;;;;;;;7.29;94.74;98862.94;4969202;28;20025;-77
2023/11/12 04:03:27;;;;;;;0.00;0.00;;;;;;;7.28;95.16;98866.75;4979978;28;20034;-76
2023/11/12 04:05:53;;;;;;;0.00;0.00;;;;;;;7.11;94.93;98850.81;4946586;28;20038;-77
2023/11/12 04:08:18;;;;;;;0.00;0.00;;;;;;;7.12;95.04;98868.75;4951835;28;20393;-77
2023/11/12 04:10:44;;;;;;;0.00;0.00;;;;;;;7.07;95.76;98866.88;4956987;28;20046;-76
2023/11/12 04:13:10;;;;;;;0.00;0.00;;;;;;;7.07;95.34;98877.75;4980452;28;20110;-76
2023/11/12 04:15:36;;;;;;;0.00;0.00;;;;;;;6.94;96.18;98854.72;4960762;28;20034;-77
2023/11/12 04:18:05;;;;;;;0.00;0.00;;;;;;;6.96;96.07;98857.97;4967142;28;20155;-77
2023/11/12 04:20:32;;;;;;;0.00;0.00;;;;;;;6.99;95.67;98859.31;4953392;28;20031;-77
2023/11/12 04:22:58;;;;;;;0.00;0.00;;;;;;;6.99;96.11;98859.31;4959167;28;20038;-77
2023/11/12 04:25:24;;;;;;;0.00;0.00;;;;;;;7.03;96.11;98860.38;4967279;28;20026;-77
2023/11/12 04:27:49;;;;;;;0.00;0.00;;;;;;;6.93;96.30;98839.50;4969325;28;20026;-76
2023/11/12 04:30:16;;;;;;;0.10;0.10;;;;;;;6.93;96.37;98841.41;4968978;28;20089;-77
2023/11/12 04:32:44;;;;;;;0.00;0.00;;;;;;;7.03;95.87;98865.00;4976740;28;20022;-78
2023/11/12 04:35:11;;;;;;;0.00;0.00;;;;;;;7.01;95.96;98859.84;4984869;28;20054;-77
2023/11/12 04:37:40;;;;;;;0.00;0.00;;;;;;;7.02;96.37;98853.31;4977872;28;20035;-78
2023/11/12 04:40:09;;;;;;;0.00;0.00;;;;;;;7.02;96.00;98858.75;4962020;28;20030;-77
2023/11/12 04:42:35;;;;;;;0.00;0.00;;;;;;;6.99;96.17;98853.88;4976109;28;20102;-78
2023/11/12 04:45:01;;;;;;;0.00;0.00;;;;;;;6.98;96.12;98863.16;4935185;28;20129;-78
2023/11/12 04:47:26;;;;;;;0.00;0.00;;;;;;;6.98;95.83;98860.44;4968333;28;20049;-77
2023/11/12 04:49:51;;;;;;;0.00;0.00;;;;;;;6.91;96.25;98851.78;4960771;28;20041;-76
2023/11/12 04:52:17;;;;;;;0.00;0.00;;;;;;;6.84;96.30;98843.09;4929646;28;20034;-77
2023/11/12 04:54:47;;;;;;;0.00;0.00;;;;;;;6.91;96.37;98851.78;4982375;28;20113;-77
2023/11/12 04:57:13;;;;;;;0.00;0.00;;;;;;;6.90;96.41;98852.84;4979806;28;20109;-75
2023/11/12 04:59:40;;;;;;;0.00;0.00;;;;;;;6.96;96.24;98859.88;4936772;28;20130;-78
2023/11/12 05:02:06;;;;;;;0.00;0.00;;;;;;;6.85;96.40;98855.59;4976741;28;20018;-76
2023/11/12 05:04:32;;;;;;;0.00;0.00;;;;;;;6.91;96.59;98866.16;4961806;28;20041;-78
2023/11/12 05:06:58;;;;;;;0.00;0.00;;;;;;;6.88;96.87;98865.88;4931528;28;20128;-77
2023/11/12 05:09:23;;;;;;;0.00;0.00;;;;;;;6.68;96.35;98840.44;4953607;28;20023;-78
2023/11/12 05:11:48;;;;;;;0.00;0.00;;;;;;;6.88;96.84;98871.31;4966321;28;20034;-78
2023/11/12 05:14:14;;;;;;;0.00;0.00;;;;;;;6.88;96.60;98874.03;4937196;28;20018;-76
2023/11/12 05:16:43;;;;;;;0.00;0.00;;;;;;;6.82;96.53;98874.06;4938676;28;20041;-78
2023/11/12 05:19:08;;;;;;;0.08;0.08;;;;;;;6.82;96.41;98863.22;4955708;28;20031;-78
2023/11/12 05:21:35;;;;;;;0.00;0.00;;;;;;;6.84;96.64;98867.56;4936789;28;20026;-77
2023/11/12 05:24:01;;;;;;;0.00;0.00;;;;;;;6.84;95.90;98862.94;4956653;28;20043;-79
2023/11/12 05:26:26;;;;;;;0.00;0.00;;;;;;;6.77;95.88;98846.91;4955464;28;20128;-79
2023/11/12 05:28:52;;;;;;;0.00;0.00;;;;;;;6.97;96.17;98883.25;4982660;28;20029;-79
2023/11/12 05:31:17;;;;;;;0.00;0.00;;;;;;;6.95;96.25;98871.81;4960197;28;20037;-78
2023/11/12 05:33:43;;;;;;;0.00;0.00;;;;;;;7.03;95.53;98893.00;4970749;28;20026;-81
2023/11/12 05:36:08;;;;;;;0.00;0.00;;;;;;;6.87;95.77;98873.22;4972728;28;20035;-79
2023/11/12 05:38:34;;;;;;;0.00;0.00;;;;;;;6.80;95.99;98859.97;4936367;28;20498;-78
2023/11/12 05:41:03;;;;;;;0.00;0.00;;;;;;;6.90;95.76;98878.09;4964490;28;20022;-78
2023/11/12 05:43:28;;;;;;;0.00;0.00;;;;;;;6.80;95.95;98857.25;4976791;28;20042;-77
2023/11/12 05:45:54;;;;;;;0.00;0.00;;;;;;;6.92;96.02;98885.97;4948371;28;20059;-78
2023/11/12 05:48:22;;;;;;;0.00;0.00;;;;;;;6.92;96.09;98880.53;4923514;28;20072;-79
2023/11/12 05:50:48;;;;;;;0.00;0.00;;;;;;;6.84;96.64;98884.66;4934264;28;20239;-78
2023/11/12 05:53:14;;;;;;;0.00;0.00;;;;;;;6.88;96.23;98884.91;4967093;28;20026;-78
2023/11/12 05:55:39;;;;;;;0.00;0.00;;;;;;;6.90;96.01;98888.19;4970282;28;20088;-79
2023/11/12 05:58:05;;;;;;;0.00;0.00;;;;;;;6.73;96.25;98864.06;4939886;28;20026;-77
2023/11/12 06:00:30;;;;;;;0.00;0.00;;;;;;;6.88;96.32;98884.91;4950718;28;20125;-77
2023/11/12 06:02:56;;;;;;;0.00;0.00;;;;;;;6.80;96.21;98879.00;4962019;28;20023;-78
2023/11/12 06:05:21;;;;;;;0.00;0.00;;;;;;;6.82;96.39;98892.28;4922629;28;20122;-76
2023/11/12 06:07:46;;;;;;;0.00;0.00;;;;;;;6.80;96.57;98894.47;4924605;28;20027;-77
2023/11/12 06:10:13;;;;;;;0.00;0.00;;;;;;;6.71;97.04;98879.84;4944894;28;20065;-78
2023/11/12 06:12:38;;;;;;;0.00;0.00;;;;;;;6.61;96.85;98880.69;4953435;28;20420;-77
2023/11/12 06:15:05;;;;;;;0.00;0.00;;;;;;;6.54;97.43;98886.44;4962716;28;20119;-77
2023/11/12 06:17:31;;;;;;;0.00;0.00;;;;;;;6.52;97.69;98887.78;4937674;28;20031;-76
2023/11/12 06:19:56;;;;;;;0.00;0.00;;;;;;;6.43;97.24;98874.78;4980175;28;20106;-78
2023/11/12 06:22:22;;;;;;;0.00;0.00;;;;;;;6.35;98.37;98888.94;4955513;28;20030;-77
2023/11/12 06:24:47;;;;;;;0.00;0.00;;;;;;;6.22;98.10;98884.06;4986154;28;20084;-77
2023/11/12 06:27:13;;;;;;;0.00;0.00;;;;;;;6.18;98.30;98899.28;4978944;28;20038;-77
2023/11/12 06:29:38;;;;;;;0.00;0.00;;;;;;;6.08;98.58;98890.06;4974082;28;21287;-77
2023/11/12 06:32:05;;;;;;;0.00;0.00;;;;;;;6.09;99.06;98913.41;4977393;28;20037;-76
2023/11/12 06:34:31;;;;;;;0.00;0.00;;;;;;;6.04;99.31;98920.72;4949201;28;20072;-77
2023/11/12 06:36:57;;;;;;;0.00;0.00;;;;;;;6.05;99.54;98923.16;4959662;28;20477;-76
2023/11/12 06:39:22;;;;;;;0.00;0.00;;;;;;;6.14;99.49;98920.72;4966105;28;20042;-77
2023/11/12 06:41:47;;;;;;;0.00;0.00;;;;;;;6.12;99.03;98906.63;4971372;28;20034;-76
2023/11/12 06:44:15;;;;;;;0.00;0.00;;;;;;;6.27;98.76;98924.78;4949008;28;20109;-77
2023/11/12 06:46:45;;;;;;;0.00;0.00;;;;;;;6.25;98.74;98922.34;4950179;28;20050;-77
2023/11/12 06:49:10;;;;;;;0.00;0.00;;;;;;;6.38;98.62;98937.25;4956303;28;20034;-77
2023/11/12 06:51:36;;;;;;;0.00;0.00;;;;;;;6.34;98.20;98921.75;4963773;28;20033;-77
2023/11/12 06:54:01;;;;;;;0.00;0.00;;;;;;;6.53;98.08;98949.19;4953276;28;20054;-77
2023/11/12 06:56:34;;;;;;;0.00;0.00;;;;;;;6.63;97.49;98971.69;4960128;28;20390;-77
2023/11/12 06:59:02;;;;;;;0.00;0.00;;;;;;;6.63;97.76;98954.56;4955416;28;20034;-78
2023/11/12 07:01:29;;;;;;;0.00;0.00;;;;;;;6.68;98.19;98956.47;4973449;28;20030;-78
2023/11/12 07:03:54;;;;;;;0.00;0.00;;;;;;;6.75;97.66;98960.50;4958058;28;20038;-78
2023/11/12 07:06:20;;;;;;;0.00;0.00;;;;;;;6.77;97.93;98968.38;4944407;28;20484;-75
2023/11/12 07:08:45;;;;;;;0.00;0.00;;;;;;;6.76;97.90;98955.88;4951591;28;20489;-77
2023/11/12 07:11:11;;;;;;;0.00;0.00;;;;;;;6.81;97.47;98962.09;4961047;28;20038;-79
2023/11/12 07:13:36;;;;;;;0.00;0.00;;;;;;;6.81;97.33;98962.09;4938693;28;20050;-76
2023/11/12 07:16:04;;;;;;;0.00;0.00;;;;;;;6.85;97.29;98956.13;4960109;28;20038;-76
2023/11/12 07:18:29;;;;;;;0.00;0.00;;;;;;;6.80;97.17;98941.47;4958084;28;20037;-76
2023/11/12 07:20:57;;;;;;;0.00;0.00;;;;;;;6.97;96.86;98956.63;4963667;28;20035;-77
2023/11/12 07:23:22;;;;;;;0.00;0.00;;;;;;;6.85;97.02;98937.09;4975876;28;20034;-77
2023/11/12 07:25:58;;;;;;;0.00;0.00;;;;;;;6.80;97.07;98930.63;4958763;28;20386;-76
2023/11/12 07:28:36;;;;;;;;;;;;;;;;;;;;;
2023/11/12 07:31:10;;;;;;;0.00;0.00;;;;;;;6.94;96.82;98949.84;4971805;28;20041;-79
2023/11/12 07:33:35;;;;;;;0.00;0.00;;;;;;;6.73;96.79;98913.78;4969606;28;20764;-78
2023/11/12 07:36:11;;;;;;;;;;;;;;;;;;;;;
2023/11/12 07:38:36;;;;;;;0.00;0.00;;;;;;;7.06;96.88;98962.31;4948004;28;20049;-78
2023/11/12 07:41:07;;;;;;;0.00;0.00;;;;;;;7.19;96.37;98966.31;4951548;28;20401;-79
2023/11/12 07:43:42;;;;;;;0.00;0.00;;;;;;;7.18;96.83;98959.25;4974000;28;20026;-77
2023/11/12 07:46:25;;;;;;;0.00;0.00;;;;;;;7.20;95.90;98973.38;4965626;28;20054;-78
2023/11/12 07:48:53;;;;;;;0.00;0.00;;;;;;;6.88;96.49;98917.50;4970193;28;20026;-77
2023/11/12 07:51:19;;;;;;;0.00;0.00;;;;;;;7.07;96.28;98953.06;4972465;28;20050;-78
2023/11/12 07:53:48;;;;;;;0.00;0.00;;;;;;;7.14;96.17;98954.38;4951254;28;20026;-77
2023/11/12 07:56:16;;;;;;;0.00;0.00;;;;;;;7.30;95.74;98986.91;4962389;28;20027;-77
2023/11/12 07:58:46;;;;;;;0.00;0.00;;;;;;;7.18;96.32;98965.50;4958560;28;20029;-75
2023/11/12 08:01:18;;;;;;;0.00;0.00;;;;;;;7.34;95.87;98990.72;4967928;28;20045;-76
2023/11/12 08:03:44;;;;;;;0.00;0.00;;;;;;;7.35;96.05;99000.50;4940534;28;20042;-75
2023/11/12 08:06:09;;;;;;;0.10;0.10;;;;;;;7.41;95.43;99012.97;4951061;28;20538;-75
2023/11/12 08:08:55;;;;;;;0.00;0.00;;;;;;;7.43;95.46;99018.97;4956819;28;20054;-76
2023/11/12 08:32:19;;;;;;;0.00;0.00;;;;;;;8.02;93.70;99021.88;4863675;29;20050;-76
2023/11/12 08:34:45;;;;;;;0.00;0.00;;;;;;;8.20;93.30;99040.22;4916019;29;20048;-75
2023/11/12 08:37:11;;;;;;;0.00;0.00;;;;;;;8.26;93.29;99053.81;4922903;29;20414;-76
2023/11/12 08:39:36;;;;;;;0.00;0.00;;;;;;;8.17;92.78;99029.91;4923163;28;20043;-76
2023/11/12 08:42:02;;;;;;;0.00;0.00;;;;;;;8.25;92.77;99041.28;4984102;28;20030;-74
2023/11/12 08:44:29;;;;;;;0.00;0.00;;;;;;;8.19;92.68;99027.75;4959067;28;20436;-76
2023/11/12 08:46:55;;;;;;;0.00;0.00;;;;;;;8.31;92.44;99040.16;4974714;28;20069;-77
2023/11/12 08:49:21;;;;;;;0.00;0.00;;;;;;;8.44;91.96;99058.63;4936670;28;20030;-79
2023/11/12 08:51:47;;;;;;;0.00;0.00;;;;;;;8.53;91.79;99065.06;4943594;28;20059;-78
2023/11/12 08:54:13;;;;;;;0.00;0.00;;;;;;;8.57;91.91;99059.84;4946184;28;20084;-79
2023/11/12 08:56:39;;;;;;;0.00;0.00;;;;;;;8.60;91.48;99050.31;4943913;28;20066;-77
2023/11/12 08:59:05;;;;;;;0.00;0.00;;;;;;;8.75;91.13;99069.25;4973852;28;20034;-78
2023/11/12 09:01:43;;;;;;;0.00;0.00;;;;;;;8.81;91.25;99065.38;4969520;28;20022;-78
2023/11/12 09:04:09;;;;;;;0.00;0.00;;;;;;;8.93;90.63;99056.00;4977298;28;20439;-78
2023/11/12 09:06:34;;;;;;;0.00;0.00;;;;;;;9.08;90.71;99061.25;4959034;28;20117;-77
2023/11/12 09:09:04;;;;;;;0.00;0.00;;;;;;;9.15;89.73;99053.56;4962843;28;20027;-77
2023/11/12 09:11:31;;;;;;;0.00;0.00;;;;;;;9.31;89.99;99064.31;4972269;28;20030;-79
2023/11/12 09:14:00;;;;;;;0.00;0.00;;;;;;;9.26;89.37;99038.69;4948070;28;20033;-78
2023/11/12 09:16:26;;;;;;;0.00;0.00;;;;;;;9.43;89.25;99065.53;4940914;28;20076;-78
2023/11/12 09:18:51;;;;;;;0.00;0.00;;;;;;;9.46;89.25;99061.38;4961236;28;20118;-77
2023/11/12 09:21:19;;;;;;;0.00;0.00;;;;;;;9.54;88.37;99082.56;4982165;28;20135;-77
2023/11/12 09:23:45;;;;;;;0.00;0.00;;;;;;;9.45;88.86;99051.59;4955527;28;20080;-77
2023/11/12 09:26:22;;;;;;;0.00;0.00;;;;;;;9.66;88.25;99043.13;4967381;28;20026;-77
2023/11/12 09:28:48;;;;;;;0.00;0.00;;;;;;;10.01;88.18;99057.38;4973876;28;20225;-77
2023/11/12 09:31:13;;;;;;;0.00;0.00;;;;;;;10.17;87.35;99039.66;4952545;28;20121;-78
2023/11/12 09:33:39;;;;;;;0.00;0.00;;;;;;;10.40;86.32;99043.41;4965867;28;21674;-79
2023/11/12 09:36:05;;;;;;;0.00;0.00;;;;;;;10.56;86.26;99045.91;4962235;28;20094;-77
2023/11/12 09:38:35;;;;;;;0.00;0.00;;;;;;;10.68;85.85;99053.63;4967777;28;20026;-77
2023/11/12 09:41:03;;;;;;;0.00;0.00;;;;;;;10.86;85.35;99071.06;4979391;28;20022;-77
2023/11/12 09:43:29;;;;;;;0.00;0.00;;;;;;;10.77;84.73;99070.94;4972900;28;21309;-77
2023/11/12 09:45:58;;;;;;;0.00;0.00;;;;;;;10.68;85.16;99059.09;4969213;28;20117;-76
2023/11/12 09:48:35;;;;;;;0.00;0.00;;;;;;;10.67;85.09;99054.72;4965500;28;20030;-76
2023/11/12 09:51:05;;;;;;;0.00;0.00;;;;;;;10.67;84.64;99030.13;4981889;28;20034;-78
2023/11/12 09:53:34;;;;;;;0.00;0.00;;;;;;;10.80;84.84;99037.53;4941194;28;20027;-78
2023/11/12 09:56:08;;;;;;;0.00;0.00;;;;;;;11.15;83.43;99074.34;4973771;28;20055;-76
2023/11/12 09:58:40;;;;;;;0.00;0.00;;;;;;;10.96;83.55;99051.75;4957847;28;20047;-77
2023/11/12 10:01:07;;;;;;;0.00;0.00;;;;;;;10.94;83.68;99076.66;4965040;28;20041;-77
2023/11/12 10:03:33;;;;;;;0.00;0.00;;;;;;;10.76;83.67;99063.84;4961127;28;20080;-76
2023/11/12 10:05:59;;;;;;;0.00;0.00;;;;;;;10.67;84.03;99066.47;4970028;28;20771;-78
2023/11/12 10:08:25;;;;;;;0.00;0.00;;;;;;;10.62;84.66;99064.63;4934938;28;20034;-77
2023/11/12 10:10:55;;;;;;;0.00;0.00;;;;;;;10.63;84.42;99063.53;4956686;28;20042;-77
2023/11/12 10:13:35;;;;;;;0.00;0.00;;;;;;;10.68;84.73;99078.22;4979017;28;20700;-77
2023/11/12 10:16:05;;;;;;;0.00;0.00;;;;;;;10.46;84.51;99058.59;4951308;28;20097;-78
2023/11/12 10:18:35;;;;;;;0.00;0.00;;;;;;;10.43;84.92;99069.34;4966788;28;20097;-76
2023/11/12 10:21:07;;;;;;;0.00;0.00;;;;;;;10.33;84.49;99061.28;4968694;28;20019;-77
2023/11/12 10:23:33;;;;;;;0.00;0.00;;;;;;;10.35;84.68;99072.75;4946495;28;20033;-78
2023/11/12 10:25:58;;;;;;;0.00;0.00;;;;;;;10.24;84.23;99077.53;4949875;28;20034;-77
2023/11/12 10:28:33;;;;;;;0.00;0.00;;;;;;;10.29;85.04;99081.00;4947009;28;20027;-78
2023/11/12 10:31:00;;;;;;;0.00;0.00;;;;;;;10.30;84.46;99066.22;4975449;28;20030;-76
2023/11/12 10:33:29;;;;;;;0.00;0.00;;;;;;;10.59;84.63;99078.91;4965256;28;20097;-76
2023/11/12 10:35:55;;;;;;;0.00;0.00;;;;;;;10.95;83.93;99080.19;4944622;28;20057;-77
2023/11/12 10:38:23;;;;;;;0.00;0.00;;;;;;;11.19;82.40;99077.28;4979727;28;20054;-76
2023/11/12 10:41:07;;;;;;;0.00;0.00;;;;;;;11.30;81.97;99080.63;4976950;28;20137;-75
2023/11/12 10:43:35;;;;;;;0.00;0.00;;;;;;;11.30;81.48;99092.41;4947517;28;20483;-76
2023/11/12 10:46:06;;;;;;;0.00;0.00;;;;;;;11.24;82.18;99055.28;4962572;28;20047;-76
2023/11/12 10:48:34;;;;;;;0.00;0.00;;;;;;;11.56;82.45;99061.78;4943245;28;20038;-76
2023/11/12 10:51:05;;;;;;;0.00;0.00;;;;;;;12.44;81.18;99051.63;4952528;28;20015;-79
2023/11/12 10:53:32;;;;;;;0.00;0.00;;;;;;;13.29;78.00;99059.81;4949155;28;20094;-75
2023/11/12 10:56:07;;;;;;;0.00;0.00;;;;;;;13.48;75.72;99056.03;4970294;28;20038;-79
2023/11/12 10:58:35;;;;;;;0.00;0.00;;;;;;;13.42;75.62;99052.63;4961417;28;20026;-79
2023/11/12 11:01:03;;;;;;;0.00;0.00;;;;;;;13.37;75.26;99061.81;4959419;28;20034;-78
2023/11/12 11:03:35;;;;;;;0.00;0.00;;;;;;;13.22;75.17;99038.31;4966742;28;20061;-78
2023/11/12 11:06:05;;;;;;;0.00;0.00;;;;;;;13.01;75.21;99049.06;4962415;28;20055;-79
2023/11/12 11:08:36;;;;;;;0.00;0.00;;;;;;;12.65;75.81;99032.72;4968746;28;20085;-80
2023/11/12 11:11:06;;;;;;;0.00;0.00;;;;;;;12.50;76.64;99053.94;4928435;28;20248;-78
2023/11/12 11:13:39;;;;;;;0.00;0.00;;;;;;;12.23;77.11;99035.66;4944598;28;20086;-79
2023/11/12 11:16:05;;;;;;;0.00;0.00;;;;;;;11.74;77.86;98991.56;4961190;28;20397;-79
2023/11/12 11:18:30;;;;;;;0.00;0.00;;;;;;;12.04;77.79;99049.53;4948524;28;20035;-81
2023/11/12 11:21:38;;;;;;;0.00;0.00;;;;;;;11.94;79.03;99034.13;4962693;28;20056;-79
2023/11/12 11:24:02;;;;;;;0.00;0.00;;;;;;;11.76;79.45;99019.44;4962140;28;20043;-79
2023/11/12 11:26:35;;;;;;;0.00;0.00;;;;;;;11.92;79.27;99036.34;4950946;28;20027;-80
2023/11/12 11:29:04;;;;;;;0.00;0.00;;;;;;;12.04;79.72;99031.16;4963180;28;20023;-78
2023/11/12 11:31:38;;;;;;;0.00;0.00;;;;;;;12.04;79.49;99039.38;4956214;28;20050;-80
2023/11/12 11:34:05;;;;;;;0.00;0.00;;;;;;;11.84;79.69;99023.38;4952397;28;20030;-76
2023/11/12 11:36:34;;;;;;;0.00;0.00;;;;;;;11.80;80.37;99006.78;4964824;28;20264;-78
2023/11/12 11:39:02;;;;;;;0.00;0.00;;;;;;;11.93;79.80;99042.63;4948466;28;20496;-78
2023/11/12 11:41:34;;;;;;;0.00;0.00;;;;;;;11.69;80.16;99021.81;4961021;28;20034;-76
2023/11/12 11:44:31;;;;;;;0.00;0.00;;;;;;;11.84;80.69;99028.84;4968881;28;20029;-77
2023/11/12 12:04:17;;;;;;;0.00;0.00;;;;;;;11.30;81.73;99018.53;4923975;29;20580;-77
2023/11/12 12:06:44;;;;;;;0.00;0.00;;;;;;;11.26;82.37;98987.41;4935211;28;20038;-77
2023/11/12 12:09:18;;;;;;;0.00;0.00;;;;;;;11.65;81.53;99027.09;4947976;28;20030;-79
2023/11/12 12:11:47;;;;;;;0.00;0.00;;;;;;;11.62;81.56;99016.75;4951803;28;20366;-78
2023/11/12 12:14:24;;;;;;;0.00;0.00;;;;;;;11.68;81.29;99040.16;4943080;28;20037;-76
2023/11/12 12:16:50;;;;;;;0.00;0.00;;;;;;;11.54;82.17;99036.63;4970976;28;20031;-78
2023/11/12 12:19:23;;;;;;;0.00;0.00;;;;;;;11.30;82.56;99007.56;4974175;28;20546;-78
2023/11/12 12:21:52;;;;;;;0.00;0.00;;;;;;;11.32;82.96;99019.03;4968113;28;20023;-78